Time;durP1;ratioP1;P1;durP2;ratioP2;P2;SDS_P1;SDS_P2;PMS_P1;PMS_P2;Temp;Humidity;BMP_temperature;BMP_pressure;BME280_temperature;BME280_humidity;BME280_pressure;Samples;Min_cycle;Max_cycle;Signal;HPM_P1;HPM_P2
2024/02/20 00:01:22;;;;;;;7.25;2.53;;;;;;;6.74;100.00;102084.97;4972967;28;20330;-74
2024/02/20 00:03:47;;;;;;;7.38;1.90;;;;;;;6.75;100.00;102076.75;5022195;28;20570;-73
2024/02/20 00:06:13;;;;;;;6.32;1.90;;;;;;;6.73;100.00;102073.50;4987149;28;20049;-73
2024/02/20 00:08:40;;;;;;;7.00;1.85;;;;;;;6.72;100.00;102076.38;4985660;28;20030;-74
2024/02/20 00:11:06;;;;;;;5.88;1.83;;;;;;;6.71;100.00;102080.91;4998785;28;20561;-74
2024/02/20 00:13:31;;;;;;;6.07;1.95;;;;;;;6.71;100.00;102075.56;4986464;28;20046;-72
2024/02/20 00:15:57;;;;;;;5.45;1.42;;;;;;;6.70;100.00;102076.56;4985493;28;20034;-72
2024/02/20 00:18:23;;;;;;;4.53;1.77;;;;;;;6.70;100.00;102087.22;4986097;28;20034;-73
2024/02/20 00:20:49;;;;;;;3.95;1.33;;;;;;;6.70;100.00;102084.56;4989782;28;20038;-72
2024/02/20 00:23:14;;;;;;;3.35;1.40;;;;;;;6.69;100.00;102084.78;4984221;28;20038;-73
2024/02/20 00:25:45;;;;;;;5.47;1.50;;;;;;;6.68;100.00;102075.97;4986811;28;20376;-74
2024/02/20 00:28:28;;;;;;;6.15;2.33;;;;;;;6.64;100.00;102087.25;4983669;28;20070;-71
2024/02/20 00:30:53;;;;;;;6.18;1.55;;;;;;;6.67;100.00;102079.66;5016282;28;20586;-72
2024/02/20 00:33:19;;;;;;;4.72;2.00;;;;;;;6.67;100.00;102082.34;5017467;28;20154;-74
2024/02/20 00:35:44;;;;;;;4.15;1.35;;;;;;;6.67;100.00;102074.34;5002061;28;20042;-75
2024/02/20 00:38:11;;;;;;;9.50;2.10;;;;;;;6.66;100.00;102077.22;4998906;28;20030;-77
2024/02/20 00:40:36;;;;;;;6.00;1.80;;;;;;;6.66;100.00;102078.03;4969291;28;20646;-72
2024/02/20 00:43:03;;;;;;;7.70;2.13;;;;;;;6.67;100.00;102070.88;4999837;28;20065;-73
2024/02/20 00:45:29;;;;;;;7.25;2.22;;;;;;;6.65;100.00;102071.09;4982181;28;20042;-74
2024/02/20 00:47:54;;;;;;;5.38;2.40;;;;;;;6.64;100.00;102074.78;4970622;28;20080;-73
2024/02/20 00:50:21;;;;;;;7.03;3.10;;;;;;;6.63;100.00;102073.13;4967339;28;20523;-75
2024/02/20 00:52:47;;;;;;;6.90;2.72;;;;;;;6.65;100.00;102081.75;4980744;28;20396;-73
2024/02/20 00:55:13;;;;;;;10.90;3.15;;;;;;;6.67;100.00;102073.53;4982574;28;20558;-73
2024/02/20 00:57:39;;;;;;;7.63;3.10;;;;;;;6.65;100.00;102086.25;4983309;28;20038;-73
2024/02/20 01:00:05;;;;;;;6.10;2.95;;;;;;;6.63;100.00;102078.44;4982576;28;20788;-73
2024/02/20 01:02:31;;;;;;;6.80;3.50;;;;;;;6.63;100.00;102085.63;5003248;28;20042;-72
2024/02/20 01:04:57;;;;;;;8.75;3.10;;;;;;;6.64;100.00;102082.78;4986942;28;20033;-72
2024/02/20 01:07:24;;;;;;;13.52;4.70;;;;;;;6.62;100.00;102087.47;4981947;28;20037;-74
2024/02/20 01:09:50;;;;;;;13.13;3.20;;;;;;;6.61;100.00;102080.50;5014867;28;20562;-72
2024/02/20 01:12:16;;;;;;;12.13;3.90;;;;;;;6.64;100.00;102085.44;4985547;28;20035;-73
2024/02/20 01:14:43;;;;;;;9.57;3.15;;;;;;;6.65;100.00;102087.06;4962777;28;20157;-74
2024/02/20 01:17:10;;;;;;;11.52;3.05;;;;;;;6.65;100.00;102087.06;5001494;28;20700;-72
2024/02/20 01:19:36;;;;;;;8.32;3.15;;;;;;;6.67;100.00;102089.50;4968469;28;21410;-74
2024/02/20 01:22:02;;;;;;;10.20;3.10;;;;;;;6.65;100.00;102076.41;4984124;28;20034;-72
2024/02/20 01:24:28;;;;;;;10.02;3.55;;;;;;;6.66;100.00;102087.88;4999078;28;20459;-74
2024/02/20 01:26:54;;;;;;;10.60;3.30;;;;;;;6.65;100.00;102083.59;4982339;28;20593;-74
2024/02/20 01:29:21;;;;;;;8.40;3.15;;;;;;;6.64;100.00;102074.78;4976906;28;20476;-74
2024/02/20 01:31:48;;;;;;;8.68;2.22;;;;;;;6.62;100.00;102084.00;4997715;28;20116;-74
2024/02/20 01:34:14;;;;;;;8.98;2.42;;;;;;;6.62;100.00;102092.78;4964510;28;20457;-74
2024/02/20 01:36:40;;;;;;;6.68;2.22;;;;;;;6.63;100.00;102086.44;5018646;28;20033;-75
2024/02/20 01:39:07;;;;;;;8.40;1.63;;;;;;;6.61;100.00;102085.84;4997422;28;20097;-75
2024/02/20 01:41:33;;;;;;;5.78;2.00;;;;;;;6.61;100.00;102087.69;4967146;28;20044;-75
2024/02/20 01:43:58;;;;;;;9.18;2.03;;;;;;;6.61;100.00;102093.81;4982195;28;20042;-74
2024/02/20 01:46:24;;;;;;;9.20;2.45;;;;;;;6.62;100.00;102092.78;4998650;28;20050;-76
2024/02/20 01:48:50;;;;;;;8.90;2.17;;;;;;;6.63;100.00;102094.41;4986310;28;20760;-75
2024/02/20 01:51:17;;;;;;;8.05;2.28;;;;;;;6.62;100.00;102100.78;4986611;28;20034;-74
2024/02/20 01:53:44;;;;;;;;;;;;;;;6.61;100.00;102104.47;4982026;28;20049;-75
2024/02/20 01:56:13;;;;;;;6.63;2.13;;;;;;;6.61;100.00;102101.00;5002684;28;19913;-77
2024/02/20 01:58:39;;;;;;;9.75;2.60;;;;;;;6.60;100.00;102097.50;4981597;28;20151;-75
2024/02/20 02:01:05;;;;;;;9.10;1.90;;;;;;;6.57;100.00;102111.25;4985293;28;20595;-74
2024/02/20 02:03:33;;;;;;;5.85;2.08;;;;;;;6.57;100.00;102108.59;4982348;28;20254;-74
2024/02/20 02:05:59;;;;;;;5.00;1.52;;;;;;;6.56;100.00;102106.94;5003219;28;20042;-74
2024/02/20 02:08:25;;;;;;;5.88;1.70;;;;;;;6.56;100.00;102104.28;4984245;28;20040;-74
2024/02/20 02:10:50;;;;;;;5.45;1.70;;;;;;;6.55;100.00;102113.28;4987872;28;20113;-74
2024/02/20 02:13:16;;;;;;;6.05;1.40;;;;;;;6.55;100.00;102114.09;4968255;28;20201;-74
2024/02/20 02:15:42;;;;;;;6.30;1.42;;;;;;;6.55;100.00;102107.97;4985252;28;20039;-75
2024/02/20 02:18:08;;;;;;;7.85;1.48;;;;;;;6.52;100.00;102119.03;4970466;28;20045;-75
2024/02/20 02:20:36;;;;;;;6.88;1.70;;;;;;;6.52;100.00;102119.84;5004768;28;20039;-77
2024/02/20 02:23:02;;;;;;;9.43;1.40;;;;;;;6.54;100.00;102122.31;4999519;28;20258;-73
2024/02/20 02:25:28;;;;;;;9.35;1.77;;;;;;;6.53;100.00;102121.50;4982584;28;20504;-74
2024/02/20 02:27:54;;;;;;;10.10;1.75;;;;;;;6.54;100.00;102123.13;4983787;28;20042;-74
2024/02/20 02:30:22;;;;;;;8.32;1.60;;;;;;;6.54;100.00;102127.63;4985053;28;20030;-75
2024/02/20 02:32:48;;;;;;;4.65;1.60;;;;;;;6.54;100.00;102127.63;5013813;28;20037;-76
2024/02/20 02:35:15;;;;;;;10.32;1.85;;;;;;;6.54;100.00;102135.63;4963434;28;20065;-73
2024/02/20 02:37:41;;;;;;;8.45;1.63;;;;;;;6.52;100.00;102129.69;4998459;28;20042;-74
2024/02/20 02:40:08;;;;;;;19.55;2.50;;;;;;;6.50;100.00;102132.56;4987057;28;20049;-73
2024/02/20 02:42:34;;;;;;;13.88;2.90;;;;;;;6.49;100.00;102120.25;4986458;28;20088;-75
2024/02/20 02:45:01;;;;;;;22.90;2.85;;;;;;;6.50;100.00;102142.38;4988209;28;20027;-76
2024/02/20 02:47:29;;;;;;;19.33;2.92;;;;;;;6.46;100.00;102143.81;4984436;28;20053;-75
2024/02/20 02:49:56;;;;;;;18.77;2.65;;;;;;;6.48;100.00;102139.09;5016647;28;20069;-75
2024/02/20 02:52:22;;;;;;;22.60;3.38;;;;;;;6.48;100.00;102142.56;5001001;28;20293;-74
2024/02/20 02:54:47;;;;;;;23.42;3.42;;;;;;;6.46;100.00;102155.28;4988328;28;20081;-75
2024/02/20 02:57:13;;;;;;;22.27;3.33;;;;;;;6.45;100.00;102150.19;4986086;28;20049;-74
2024/02/20 02:59:39;;;;;;;29.75;4.20;;;;;;;6.43;100.00;102163.66;4988468;28;20038;-74
2024/02/20 03:02:04;;;;;;;23.77;3.35;;;;;;;6.40;100.00;102158.78;4987037;28;20034;-73
2024/02/20 03:04:31;;;;;;;26.30;4.15;;;;;;;6.42;100.00;102166.53;5000919;28;20039;-74
2024/02/20 03:06:58;;;;;;;28.10;4.13;;;;;;;6.41;100.00;102164.91;4972938;28;20069;-74
2024/02/20 03:09:25;;;;;;;28.08;4.63;;;;;;;6.40;100.00;102163.28;4990027;28;20136;-72
2024/02/20 03:11:51;;;;;;;27.67;3.85;;;;;;;6.41;100.00;102175.56;5003197;28;20037;-74
2024/02/20 03:14:16;;;;;;;24.77;3.88;;;;;;;6.40;100.00;102181.91;5002993;28;20652;-75
2024/02/20 03:16:43;;;;;;;28.42;4.22;;;;;;;6.36;100.00;102184.16;5018543;28;20045;-73
2024/02/20 03:19:09;;;;;;;;;;;;;;;6.35;100.00;102184.34;4984794;28;20443;-74
2024/02/20 03:21:38;;;;;;;19.38;3.75;;;;;;;6.28;100.00;102195.00;4986453;28;19925;-72
2024/02/20 03:24:06;;;;;;;21.35;3.75;;;;;;;6.28;100.00;102198.47;5000571;28;20037;-74
2024/02/20 03:26:32;;;;;;;22.05;3.65;;;;;;;6.31;100.00;102185.81;4984701;28;20143;-75
2024/02/20 03:28:58;;;;;;;17.30;2.83;;;;;;;6.25;100.00;102204.22;5002949;28;20109;-72
2024/02/20 03:31:24;;;;;;;27.77;3.83;;;;;;;6.22;100.00;102195.81;4968773;28;20087;-73
2024/02/20 03:33:50;;;;;;;24.77;4.07;;;;;;;6.20;100.00;102204.00;4985383;28;20057;-72
2024/02/20 03:36:16;;;;;;;22.15;3.70;;;;;;;6.18;100.00;102198.09;4984533;28;20038;-74
2024/02/20 03:38:42;;;;;;;;;;;;;;;6.14;100.00;102201.34;4999894;28;20084;-73
2024/02/20 03:41:08;;;;;;;19.15;3.03;;;;;;;6.15;100.00;102205.66;4988426;28;19917;-72
2024/02/20 03:43:37;;;;;;;19.23;3.20;;;;;;;6.13;100.00;102195.22;5016968;28;20042;-75
2024/02/20 03:46:04;;;;;;;17.17;2.35;;;;;;;6.12;100.00;102214.88;4984300;28;20062;-76
2024/02/20 03:48:30;;;;;;;16.92;2.53;;;;;;;6.12;100.00;102217.53;5018338;28;20492;-74
2024/02/20 03:50:56;;;;;;;22.95;2.92;;;;;;;6.12;100.00;102214.88;5007199;28;20041;-76
2024/02/20 03:53:21;;;;;;;22.52;2.97;;;;;;;6.14;100.00;102227.94;5006676;28;20625;-74
2024/02/20 03:55:48;;;;;;;20.33;2.88;;;;;;;6.14;100.00;102219.97;4985685;28;20046;-75
2024/02/20 03:58:14;;;;;;;18.05;2.67;;;;;;;6.11;100.00;102223.88;4991532;28;20100;-75
2024/02/20 04:00:40;;;;;;;22.55;3.80;;;;;;;6.08;100.00;102224.25;4986525;28;20038;-75
2024/02/20 04:03:06;;;;;;;28.10;2.83;;;;;;;6.06;100.00;102221.00;4988814;28;20334;-73
2024/02/20 04:05:33;;;;;;;23.27;3.03;;;;;;;6.07;100.00;102233.25;4991480;28;20052;-73
2024/02/20 04:07:58;;;;;;;18.90;2.72;;;;;;;6.03;100.00;102224.06;4989316;28;20041;-74
2024/02/20 04:10:24;;;;;;;16.27;2.25;;;;;;;6.07;100.00;102227.94;4987552;28;20404;-75
2024/02/20 04:12:50;;;;;;;18.17;2.85;;;;;;;6.05;100.00;102227.34;5002132;28;20038;-74
2024/02/20 04:15:16;;;;;;;17.50;2.55;;;;;;;6.03;100.00;102229.38;5019826;28;20480;-76
2024/02/20 04:17:42;;;;;;;15.98;3.53;;;;;;;6.01;100.00;102228.75;5019667;28;20106;-73
2024/02/20 04:20:10;;;;;;;21.27;3.10;;;;;;;6.01;100.00;102245.53;4987646;28;20072;-75
2024/02/20 04:22:40;;;;;;;23.45;4.28;;;;;;;6.01;100.00;102234.06;4995014;28;20034;-74
2024/02/20 04:25:06;;;;;;;18.65;3.42;;;;;;;5.99;100.00;102252.09;4985387;28;20030;-73
2024/02/20 04:27:33;;;;;;;22.23;4.53;;;;;;;5.95;100.00;102253.50;4981986;28;20105;-72
2024/02/20 04:30:00;;;;;;;26.38;4.57;;;;;;;5.95;100.00;102250.84;4986341;28;20049;-74
2024/02/20 04:32:26;;;;;;;25.10;3.97;;;;;;;5.97;100.00;102249.63;4972548;28;20113;-75
2024/02/20 04:34:51;;;;;;;20.08;2.55;;;;;;;5.99;100.00;102257.41;4987609;28;20765;-73
2024/02/20 04:37:18;;;;;;;25.08;3.97;;;;;;;5.97;100.00;102259.44;5018164;28;20034;-73
2024/02/20 04:39:44;;;;;;;19.92;3.33;;;;;;;5.96;100.00;102257.78;5003070;28;20610;-74
2024/02/20 04:42:11;;;;;;;24.45;3.00;;;;;;;5.93;100.00;102253.69;4985075;28;20365;-74
2024/02/20 04:44:37;;;;;;;23.35;3.03;;;;;;;5.89;100.00;102256.91;4969128;28;20185;-73
2024/02/20 04:47:04;;;;;;;28.83;3.42;;;;;;;5.88;100.00;102260.59;5002000;28;20154;-76
2024/02/20 04:49:30;;;;;;;20.52;2.65;;;;;;;5.89;100.00;102267.56;4988750;28;20121;-74
2024/02/20 04:51:56;;;;;;;34.28;4.22;;;;;;;5.84;100.00;102259.38;4988870;28;20323;-74
2024/02/20 04:54:21;;;;;;;22.05;3.08;;;;;;;5.85;100.00;102271.66;4966020;28;20337;-74
2024/02/20 04:56:47;;;;;;;19.15;3.88;;;;;;;5.82;100.00;102258.75;4983838;28;20129;-75
2024/02/20 04:59:13;;;;;;;29.17;4.15;;;;;;;5.84;100.00;102260.22;5006422;28;20034;-76
2024/02/20 05:01:42;;;;;;;25.60;4.07;;;;;;;5.86;100.00;102268.78;4984670;28;20045;-75
2024/02/20 05:04:07;;;;;;;20.98;3.42;;;;;;;5.84;100.00;102267.38;4992030;28;20037;-74
2024/02/20 05:06:33;;;;;;;21.83;3.33;;;;;;;5.81;100.00;102283.69;4982292;28;20027;-75
2024/02/20 05:08:59;;;;;;;17.75;2.53;;;;;;;5.80;100.00;102279.41;5003983;28;20049;-75
2024/02/20 05:11:25;;;;;;;23.08;3.72;;;;;;;5.82;100.00;102280.84;5015537;28;20065;-74
2024/02/20 05:13:50;;;;;;;23.50;3.70;;;;;;;5.83;100.00;102279.84;4985927;28;20049;-75
2024/02/20 05:16:16;;;;;;;23.88;3.08;;;;;;;5.86;100.00;102283.94;4987134;28;20057;-76
2024/02/20 05:18:42;;;;;;;25.10;3.88;;;;;;;5.85;100.00;102288.44;4982778;28;20657;-76
2024/02/20 05:21:08;;;;;;;27.83;3.20;;;;;;;5.86;100.00;102278.63;5001614;28;20084;-76
2024/02/20 05:23:34;;;;;;;31.15;4.22;;;;;;;5.82;100.00;102280.03;4972137;28;20045;-77
2024/02/20 05:26:00;;;;;;;29.17;4.15;;;;;;;5.85;100.00;102287.59;4985686;28;20026;-75
2024/02/20 05:28:27;;;;;;;27.48;3.63;;;;;;;5.90;100.00;102303.78;4986895;28;20042;-76
2024/02/20 05:30:53;;;;;;;27.38;3.60;;;;;;;5.92;100.00;102296.47;5000294;28;20065;-74
2024/02/20 05:33:19;;;;;;;26.30;3.17;;;;;;;5.88;100.00;102288.00;5001315;28;20066;-74
2024/02/20 05:35:44;;;;;;;34.05;5.22;;;;;;;5.90;100.00;102301.94;4981607;28;20129;-75
2024/02/20 05:38:13;;;;;;;31.70;4.32;;;;;;;5.91;100.00;102305.47;4986987;28;20026;-76
2024/02/20 05:40:38;;;;;;;30.00;4.28;;;;;;;5.94;100.00;102313.84;4984388;28;20034;-75
2024/02/20 05:43:04;;;;;;;31.48;3.70;;;;;;;5.93;100.00;102312.19;4968652;28;20109;-75
2024/02/20 05:45:33;;;;;;;27.25;4.10;;;;;;;5.98;100.00;102316.94;5000079;28;20153;-75
2024/02/20 05:47:59;;;;;;;29.55;3.65;;;;;;;5.96;100.00;102318.94;5007199;28;20033;-75
2024/02/20 05:50:24;;;;;;;;;;;;;;;5.97;100.00;102316.13;5002843;28;20104;-75
2024/02/20 05:52:50;;;;;;;23.00;3.67;;;;;;;5.98;100.00;102317.75;5020884;28;20745;-74
2024/02/20 05:55:16;;;;;;;26.08;3.67;;;;;;;5.99;100.00;102311.41;4983496;28;20061;-73
2024/02/20 05:57:42;;;;;;;29.75;4.05;;;;;;;6.00;100.00;102314.88;5000967;28;20041;-76
2024/02/20 06:00:08;;;;;;;29.52;3.45;;;;;;;5.95;100.00;102322.63;5003175;28;20042;-74
2024/02/20 06:02:34;;;;;;;28.30;3.83;;;;;;;5.94;100.00;102323.66;4986096;28;20030;-76
2024/02/20 06:05:00;;;;;;;35.03;4.03;;;;;;;5.92;100.00;102320.38;4986366;28;20571;-76
2024/02/20 06:07:26;;;;;;;28.80;3.90;;;;;;;5.87;100.00;102317.47;4957760;28;20038;-75
2024/02/20 06:09:52;;;;;;;32.10;3.72;;;;;;;5.86;100.00;102321.97;4985327;28;20049;-77
2024/02/20 06:12:18;;;;;;;27.10;3.58;;;;;;;5.86;100.00;102315.84;4987918;28;20021;-76
2024/02/20 06:14:44;;;;;;;27.73;3.80;;;;;;;5.86;100.00;102318.50;5017952;28;20043;-76
2024/02/20 06:17:10;;;;;;;20.85;3.88;;;;;;;5.83;100.00;102308.28;4967705;28;20030;-74
2024/02/20 06:19:36;;;;;;;;;;;;;;;5.80;100.00;102321.94;4986059;28;20041;-75
2024/02/20 06:22:02;;;;;;;23.95;2.88;;;;;;;5.83;100.00;102324.22;4985965;28;19917;-75
2024/02/20 06:24:28;;;;;;;27.10;3.15;;;;;;;5.84;100.00;102329.34;5002353;28;20109;-74
2024/02/20 06:26:54;;;;;;;27.65;3.08;;;;;;;5.83;100.00;102327.69;4987822;28;20038;-74
2024/02/20 06:29:21;;;;;;;27.10;3.20;;;;;;;5.80;100.00;102328.09;4970715;28;20034;-74
2024/02/20 06:31:51;;;;;;;;;;;;;;;5.80;100.00;102327.25;4985577;28;20121;-75
2024/02/20 06:34:18;;;;;;;26.58;2.95;;;;;;;5.82;100.00;102334.00;5017677;28;19925;-75
2024/02/20 06:36:43;;;;;;;25.20;4.47;;;;;;;5.84;100.00;102339.16;4982245;28;20129;-76
2024/02/20 06:39:09;;;;;;;29.15;3.75;;;;;;;5.85;100.00;102330.97;4968543;28;20136;-75
2024/02/20 06:41:35;;;;;;;31.20;4.38;;;;;;;5.85;100.00;102332.81;4984555;28;20045;-76
2024/02/20 06:44:01;;;;;;;28.48;3.47;;;;;;;5.86;100.00;102331.78;4985663;28;20022;-75
2024/02/20 06:46:27;;;;;;;29.30;3.28;;;;;;;5.87;100.00;102334.25;5012950;28;20090;-75
2024/02/20 06:48:52;;;;;;;30.05;4.35;;;;;;;5.87;100.00;102320.94;4982299;28;20892;-75
2024/02/20 06:51:25;;;;;;;34.90;4.05;;;;;;;5.90;100.00;102325.88;4982753;28;20026;-76
2024/02/20 06:53:51;;;;;;;30.63;3.90;;;;;;;5.91;100.00;102340.84;4982358;28;20058;-73
2024/02/20 06:56:16;;;;;;;34.30;3.40;;;;;;;5.93;100.00;102340.63;4985389;28;20038;-74
2024/02/20 06:58:42;;;;;;;34.08;4.50;;;;;;;5.93;100.00;102346.78;5012202;28;20050;-75
2024/02/20 07:01:08;;;;;;;34.97;3.53;;;;;;;5.97;100.00;102339.22;5000267;28;20066;-74
2024/02/20 07:03:33;;;;;;;27.85;3.42;;;;;;;5.98;100.00;102346.19;4970314;28;20049;-74
2024/02/20 07:05:59;;;;;;;26.13;3.38;;;;;;;5.99;100.00;102350.47;5016531;28;20034;-74
2024/02/20 07:08:24;;;;;;;29.83;4.20;;;;;;;5.98;100.00;102347.00;5004593;28;20495;-74
2024/02/20 07:10:51;;;;;;;39.08;4.03;;;;;;;6.03;100.00;102354.38;4987122;28;20034;-73
2024/02/20 07:13:20;;;;;;;32.38;3.78;;;;;;;6.03;100.00;102354.38;4983973;28;20049;-75
2024/02/20 07:15:45;;;;;;;38.92;5.30;;;;;;;6.06;100.00;102353.16;5018782;28;20037;-74
2024/02/20 07:18:11;;;;;;;31.67;4.85;;;;;;;6.08;100.00;102357.25;4984461;28;20124;-73
2024/02/20 07:20:37;;;;;;;34.13;4.32;;;;;;;6.11;100.00;102359.53;4985336;28;20033;-74
2024/02/20 07:23:03;;;;;;;32.10;3.58;;;;;;;6.11;100.00;102354.22;4969835;28;20081;-74
2024/02/20 07:25:29;;;;;;;30.65;4.00;;;;;;;6.14;100.00;102352.97;4976395;28;20042;-73
2024/02/20 07:27:55;;;;;;;33.33;4.15;;;;;;;6.16;100.00;102356.25;5019424;28;20463;-76
2024/02/20 07:30:20;;;;;;;35.42;4.25;;;;;;;6.16;100.00;102353.59;4987317;28;20458;-74
2024/02/20 07:32:46;;;;;;;24.83;4.07;;;;;;;6.16;100.00;102349.09;4989760;28;20046;-75
2024/02/20 07:35:13;;;;;;;27.85;3.83;;;;;;;6.19;100.00;102354.00;4988438;28;20080;-75
2024/02/20 07:37:40;;;;;;;34.33;3.47;;;;;;;6.24;100.00;102345.44;4998806;28;20120;-74
2024/02/20 07:40:06;;;;;;;;;;;;;;;6.23;100.00;102344.63;4980613;28;20045;-74
2024/02/20 07:42:32;;;;;;;25.67;3.30;;;;;;;6.26;100.00;102354.03;4989351;28;20379;-74
2024/02/20 07:44:58;;;;;;;40.70;4.47;;;;;;;6.26;100.00;102346.06;4989132;28;20041;-73
2024/02/20 07:47:25;;;;;;;22.52;3.15;;;;;;;6.32;100.00;102347.09;5005945;28;20042;-75
2024/02/20 07:49:50;;;;;;;28.15;3.53;;;;;;;6.36;100.00;102345.66;4987437;28;20042;-73
2024/02/20 07:52:16;;;;;;;25.55;3.38;;;;;;;6.38;100.00;102346.28;5006338;28;20026;-73
2024/02/20 07:54:42;;;;;;;27.35;3.40;;;;;;;6.42;100.00;102342.19;5003200;28;20045;-75
2024/02/20 07:57:08;;;;;;;26.42;4.05;;;;;;;6.44;100.00;102348.97;4969383;28;20100;-75
2024/02/20 07:59:33;;;;;;;32.22;4.28;;;;;;;6.45;100.00;102341.78;4986355;28;20038;-74
2024/02/20 08:02:02;;;;;;;26.95;3.88;;;;;;;6.49;100.00;102348.31;4988442;28;20035;-75
2024/02/20 08:04:28;;;;;;;35.80;3.78;;;;;;;6.53;100.00;102344.25;5023222;28;20045;-75
2024/02/20 08:06:54;;;;;;;30.38;4.45;;;;;;;6.56;100.00;102357.97;4988690;28;20046;-76
2024/02/20 08:09:20;;;;;;;28.00;3.65;;;;;;;6.57;100.00;102346.31;4990653;28;20468;-74
2024/02/20 08:11:45;;;;;;;22.48;2.92;;;;;;;6.57;100.00;102351.63;4987498;28;20043;-75
2024/02/20 08:14:11;;;;;;;28.52;3.70;;;;;;;6.65;100.00;102352.47;5005016;28;20070;-74
2024/02/20 08:16:39;;;;;;;27.27;4.03;;;;;;;6.68;100.00;102352.84;4982945;28;20069;-75
2024/02/20 08:19:04;;;;;;;22.58;3.50;;;;;;;6.70;100.00;102344.66;4988724;28;20613;-75
2024/02/20 08:21:30;;;;;;;24.25;4.50;;;;;;;6.69;100.00;102338.50;4966216;28;20534;-75
2024/02/20 08:23:58;;;;;;;30.55;5.18;;;;;;;6.76;100.00;102338.50;4989909;28;20040;-74
2024/02/20 08:26:25;;;;;;;23.15;3.65;;;;;;;6.79;100.00;102341.59;5003192;28;20078;-73
2024/02/20 08:28:51;;;;;;;18.60;3.53;;;;;;;6.81;100.00;102336.88;4989821;28;20752;-75
2024/02/20 08:31:18;;;;;;;24.92;4.20;;;;;;;6.81;100.00;102339.53;4988056;28;20038;-75
2024/02/20 08:33:45;;;;;;;22.85;3.85;;;;;;;6.79;100.00;102336.28;4985321;28;20567;-76
2024/02/20 08:36:11;;;;;;;29.95;4.72;;;;;;;6.84;100.00;102347.13;4985876;28;20128;-73
2024/02/20 08:38:37;;;;;;;24.48;3.30;;;;;;;6.86;100.00;102349.59;4984415;28;20164;-73
2024/02/20 08:41:02;;;;;;;24.60;4.47;;;;;;;6.83;100.00;102344.66;4973965;28;20503;-75
2024/02/20 08:43:28;;;;;;;26.08;3.42;;;;;;;6.78;100.00;102339.16;4998234;28;20557;-75
2024/02/20 08:45:54;;;;;;;25.77;3.67;;;;;;;6.75;100.00;102347.53;5017040;28;20483;-77
2024/02/20 08:48:20;;;;;;;22.17;3.78;;;;;;;6.71;100.00;102341.81;4986448;28;20034;-75
2024/02/20 08:50:46;;;;;;;26.92;3.28;;;;;;;6.72;100.00;102342.63;4971756;28;20274;-75
2024/02/20 08:53:12;;;;;;;20.85;3.33;;;;;;;6.73;100.00;102352.25;5017278;28;20470;-73
2024/02/20 08:55:40;;;;;;;27.38;3.38;;;;;;;6.71;100.00;102347.13;4989951;28;20045;-75
2024/02/20 08:58:06;;;;;;;25.77;4.30;;;;;;;6.76;100.00;102349.97;4989240;28;20034;-78
2024/02/20 09:00:32;;;;;;;23.95;3.58;;;;;;;6.82;100.00;102345.69;4968417;28;20039;-74
2024/02/20 09:02:59;;;;;;;23.52;3.35;;;;;;;6.92;100.00;102342.63;5000185;28;20088;-75
2024/02/20 09:05:24;;;;;;;24.55;3.63;;;;;;;6.99;100.00;102344.25;5001202;28;20038;-74
2024/02/20 09:07:50;;;;;;;25.23;3.65;;;;;;;7.07;100.00;102332.56;4981219;28;20048;-74
2024/02/20 09:10:16;;;;;;;25.85;3.95;;;;;;;7.15;100.00;102335.00;4980810;28;20061;-76
2024/02/20 09:12:43;;;;;;;24.55;3.33;;;;;;;7.23;100.00;102334.78;4983689;28;20069;-75
2024/02/20 09:15:09;;;;;;;28.35;3.42;;;;;;;7.26;100.00;102330.91;5014844;28;20038;-74
2024/02/20 09:17:35;;;;;;;22.10;2.80;;;;;;;7.38;100.00;102330.06;4998434;28;20046;-73
2024/02/20 09:20:01;;;;;;;30.90;3.78;;;;;;;7.42;100.00;102326.94;4997658;28;20046;-76
2024/02/20 09:22:26;;;;;;;25.20;3.45;;;;;;;7.46;100.00;102325.50;5000032;28;20042;-76
2024/02/20 09:24:52;;;;;;;23.38;3.50;;;;;;;7.51;100.00;102320.34;4997516;28;20045;-74
2024/02/20 09:27:18;;;;;;;;;;;;;;;7.54;100.00;102322.63;4975153;28;20487;-74
2024/02/20 09:29:44;;;;;;;23.30;2.53;;;;;;;7.58;100.00;102305.16;4987828;28;19918;-74
2024/02/20 09:32:10;;;;;;;25.73;3.28;;;;;;;7.50;100.00;102303.53;5000852;28;20030;-75
2024/02/20 09:34:37;;;;;;;26.80;3.80;;;;;;;7.56;100.00;102310.69;4981929;28;20788;-74
2024/02/20 09:37:03;;;;;;;24.75;3.33;;;;;;;7.61;100.00;102302.06;4982761;28;20117;-76
2024/02/20 09:39:29;;;;;;;15.82;2.72;;;;;;;7.72;100.00;102308.56;4969748;28;20042;-75
2024/02/20 09:41:59;;;;;;;22.77;3.58;;;;;;;7.79;100.00;102317.34;4984337;28;20053;-74
2024/02/20 09:44:26;;;;;;;17.70;2.88;;;;;;;7.90;100.00;102319.38;4986947;28;20034;-76
2024/02/20 09:46:55;;;;;;;21.65;2.95;;;;;;;8.01;100.00;102320.56;4984625;28;20054;-75
2024/02/20 09:49:21;;;;;;;17.80;2.42;;;;;;;8.02;100.00;102316.84;4983376;28;20053;-75
2024/02/20 09:51:49;;;;;;;24.13;3.25;;;;;;;8.06;100.00;102326.03;4991005;28;20038;-73
2024/02/20 09:54:15;;;;;;;23.38;3.42;;;;;;;8.10;100.00;102324.59;4984075;28;20041;-76
2024/02/20 09:56:42;;;;;;;19.58;3.40;;;;;;;8.08;100.00;102326.66;4981678;28;20499;-76
2024/02/20 09:59:09;;;;;;;20.60;3.63;;;;;;;8.00;100.00;102332.25;4984639;28;20174;-76
2024/02/20 10:01:36;;;;;;;19.60;2.92;;;;;;;8.00;100.00;102330.41;4982872;28;20415;-77
2024/02/20 10:04:07;;;;;;;16.40;3.17;;;;;;;7.99;100.00;102327.94;4999881;28;20133;-75
2024/02/20 10:06:34;;;;;;;14.15;2.75;;;;;;;8.01;100.00;102326.72;4985346;28;20038;-77
2024/02/20 10:09:01;;;;;;;17.23;4.10;;;;;;;8.01;100.00;102329.38;4967330;28;20057;-78
2024/02/20 10:11:27;;;;;;;18.25;3.38;;;;;;;7.99;100.00;102333.28;4985510;28;20097;-76
2024/02/20 10:13:55;;;;;;;23.83;3.67;;;;;;;7.97;100.00;102330.00;4984692;28;20065;-79
2024/02/20 10:16:24;;;;;;;18.90;3.30;;;;;;;8.04;100.00;102336.13;5001640;28;20034;-75
2024/02/20 10:19:18;;;;;;;19.83;3.72;;;;;;;8.05;100.00;102337.75;5001553;28;20034;-76
2024/02/20 10:21:50;;;;;;;20.00;3.58;;;;;;;8.03;100.00;102345.16;4966486;28;20504;-75
2024/02/20 10:24:16;;;;;;;20.13;2.78;;;;;;;8.08;100.00;102340.00;4970050;28;20030;-78
2024/02/20 10:26:44;;;;;;;23.77;3.20;;;;;;;8.11;100.00;102347.56;4982757;28;20440;-78
2024/02/20 10:29:13;;;;;;;22.63;3.97;;;;;;;8.00;100.00;102329.59;4986030;28;20046;-78
2024/02/20 10:31:39;;;;;;;19.55;3.72;;;;;;;7.99;100.00;102335.94;4997070;28;20783;-77
2024/02/20 10:34:05;;;;;;;21.70;3.50;;;;;;;8.00;100.00;102334.94;4986846;28;20042;-77
2024/02/20 10:36:30;;;;;;;18.20;3.00;;;;;;;8.03;100.00;102337.16;4985265;28;20037;-78
2024/02/20 10:39:12;;;;;;;15.93;3.22;;;;;;;8.06;100.00;102337.56;4999006;28;20096;-77
2024/02/20 10:41:39;;;;;;;23.42;3.72;;;;;;;8.01;100.00;102337.38;4987627;28;20122;-76
2024/02/20 10:44:05;;;;;;;14.52;3.33;;;;;;;7.99;100.00;102334.09;4987553;28;20462;-75
2024/02/20 10:46:36;;;;;;;21.52;3.22;;;;;;;7.97;100.00;102340.69;4985707;28;20034;-76
2024/02/20 10:49:23;;;;;;;17.42;3.97;;;;;;;7.97;100.00;102340.69;4994080;28;20031;-76
2024/02/20 10:51:51;;;;;;;19.45;3.58;;;;;;;7.98;100.00;102344.97;5000885;28;20038;-75
2024/02/20 10:54:18;;;;;;;21.70;3.10;;;;;;;8.01;100.00;102333.91;5017050;28;20072;-75
2024/02/20 10:56:45;;;;;;;17.83;3.60;;;;;;;8.05;100.00;102337.75;4979921;28;20188;-75
2024/02/20 10:59:11;;;;;;;18.38;3.22;;;;;;;8.14;100.00;102352.50;4973020;28;20066;-76
2024/02/20 11:01:39;;;;;;;19.30;3.28;;;;;;;8.16;100.00;102345.91;4987853;28;20026;-75
2024/02/20 11:04:06;;;;;;;20.60;3.08;;;;;;;8.19;100.00;102344.66;5008972;28;20042;-76
2024/02/20 11:06:33;;;;;;;13.27;2.70;;;;;;;8.21;100.00;102345.28;4988290;28;20038;-76
2024/02/20 11:09:10;;;;;;;14.93;3.03;;;;;;;8.18;100.00;102337.69;4984830;28;20088;-78
2024/02/20 11:11:36;;;;;;;17.77;3.17;;;;;;;8.17;100.00;102341.38;4986665;28;20097;-76
2024/02/20 11:14:02;;;;;;;19.88;3.53;;;;;;;8.18;100.00;102333.16;5003883;28;20038;-77
2024/02/20 11:16:35;;;;;;;18.45;3.67;;;;;;;8.15;100.00;102338.13;4999185;28;20073;-77
2024/02/20 11:19:03;;;;;;;19.20;3.28;;;;;;;8.18;100.00;102340.34;5007061;28;20121;-76